Time;durP1;ratioP1;P1;durP2;ratioP2;P2;SDS_P1;SDS_P2;PMS_P1;PMS_P2;Temp;Humidity;BMP_temperature;BMP_pressure;BME280_temperature;BME280_humidity;BME280_pressure;Samples;Min_cycle;Max_cycle;Signal;HPM_P1;HPM_P2
2022/11/03 00:01:37;;;;;;;16.33;3.20;;;12.30;99.90;;;;;;5085270;28;20192;-64
2022/11/03 00:04:08;;;;;;;12.23;3.03;;;12.30;99.90;;;;;;5082173;28;20210;-64
2022/11/03 00:06:37;;;;;;;11.10;2.87;;;12.20;99.90;;;;;;5076747;28;20218;-65
2022/11/03 00:09:07;;;;;;;12.13;3.03;;;12.10;99.90;;;;;;5102067;28;20684;-64
2022/11/03 00:11:37;;;;;;;16.10;3.80;;;12.10;99.90;;;;;;5098712;28;20642;-64
2022/11/03 00:14:08;;;;;;;14.50;3.13;;;12.20;99.90;;;;;;5101827;28;20190;-65
2022/11/03 00:16:38;;;;;;;15.37;3.30;;;12.20;99.90;;;;;;5095586;28;20271;-64
2022/11/03 00:19:07;;;;;;;12.10;2.93;;;12.20;99.90;;;;;;5097228;28;20917;-65
2022/11/03 00:21:35;;;;;;;14.50;2.97;;;12.20;99.90;;;;;;5099880;28;20538;-64
2022/11/03 00:24:04;;;;;;;13.37;3.40;;;12.20;99.90;;;;;;5060771;28;20238;-64
2022/11/03 00:26:35;;;;;;;16.93;3.00;;;12.10;99.90;;;;;;5075625;28;20198;-65
2022/11/03 00:29:09;;;;;;;10.67;3.03;;;12.10;99.90;;;;;;5081769;28;20364;-64
2022/11/03 00:31:40;;;;;;;17.57;3.33;;;12.00;99.90;;;;;;5092958;28;20769;-65
2022/11/03 00:34:09;;;;;;;8.67;3.07;;;12.10;99.90;;;;;;5102006;28;20187;-65
2022/11/03 00:36:40;;;;;;;11.80;3.00;;;12.10;99.90;;;;;;5102575;28;20198;-65
2022/11/03 00:39:09;;;;;;;10.63;3.10;;;12.10;99.90;;;;;;5095673;28;20212;-65
2022/11/03 00:41:38;;;;;;;18.97;3.50;;;12.20;99.90;;;;;;5092197;28;20584;-65
2022/11/03 00:44:09;;;;;;;8.63;2.93;;;12.10;99.90;;;;;;5071233;28;20292;-65
2022/11/03 00:46:38;;;;;;;12.03;3.40;;;12.20;99.90;;;;;;5101953;28;20191;-65
2022/11/03 00:49:07;;;;;;;14.83;3.00;;;12.20;99.90;;;;;;5098887;28;20223;-65
2022/11/03 00:51:35;;;;;;;12.00;2.90;;;12.20;99.90;;;;;;5095165;28;20199;-66
2022/11/03 00:54:05;;;;;;;6.77;2.63;;;12.20;99.90;;;;;;5074092;28;20197;-65
2022/11/03 00:56:36;;;;;;;8.43;2.70;;;12.30;99.90;;;;;;5095857;28;20278;-65
2022/11/03 00:59:05;;;;;;;14.57;3.43;;;12.30;99.90;;;;;;5077339;28;20194;-65
2022/11/03 01:01:36;;;;;;;13.70;3.20;;;12.40;99.90;;;;;;5074169;28;20199;-64
2022/11/03 01:07:05;;;;;;;11.87;2.83;;;12.60;99.90;;;;;;5083060;28;20186;-65
2022/11/03 01:09:36;;;;;;;18.70;3.37;;;12.70;99.90;;;;;;5106077;28;20187;-64
2022/11/03 01:12:06;;;;;;;11.13;2.83;;;12.70;99.90;;;;;;5103440;28;20309;-64
2022/11/03 01:14:36;;;;;;;11.07;2.73;;;12.80;99.90;;;;;;5084185;28;21534;-65
2022/11/03 01:17:05;;;;;;;18.77;2.97;;;12.80;99.90;;;;;;5105798;28;20205;-64
2022/11/03 01:19:35;;;;;;;7.20;2.90;;;12.80;99.90;;;;;;5097823;28;20707;-64
2022/11/03 01:22:04;;;;;;;5.93;2.87;;;12.80;99.90;;;;;;5104413;28;20241;-65
2022/11/03 01:24:38;;;;;;;11.53;3.00;;;12.80;99.90;;;;;;5081788;28;20215;-64
2022/11/03 01:27:07;;;;;;;10.97;2.67;;;12.80;99.90;;;;;;5099294;28;20205;-65
2022/11/03 01:29:36;;;;;;;7.67;2.37;;;12.80;99.90;;;;;;5101826;28;20202;-65
2022/11/03 01:32:04;;;;;;;11.17;3.37;;;12.80;99.90;;;;;;5069711;28;20221;-64
2022/11/03 01:34:33;;;;;;;9.37;3.10;;;12.90;99.90;;;;;;5103116;28;20569;-65
2022/11/03 01:37:02;;;;;;;10.10;3.20;;;12.90;99.90;;;;;;5102848;28;20234;-65
2022/11/03 01:39:31;;;;;;;9.67;3.20;;;13.00;99.90;;;;;;5094485;28;20230;-65
2022/11/03 01:41:59;;;;;;;13.63;3.30;;;13.00;99.90;;;;;;5101198;28;20210;-65
2022/11/03 01:44:34;;;;;;;19.20;3.37;;;12.90;99.90;;;;;;5104420;28;20685;-65
2022/11/03 01:47:08;;;;;;;9.90;3.10;;;13.00;99.90;;;;;;5107691;28;20442;-65
2022/11/03 01:49:44;;;;;;;11.23;2.77;;;13.00;99.90;;;;;;5102452;28;20194;-65
2022/11/03 01:52:18;;;;;;;6.83;2.70;;;13.00;99.90;;;;;;5105827;28;20197;-65
2022/11/03 01:54:51;;;;;;;10.17;3.00;;;13.00;99.90;;;;;;5102905;28;20822;-65
2022/11/03 01:57:25;;;;;;;10.30;2.60;;;13.00;99.90;;;;;;5066250;28;20187;-65
2022/11/03 01:59:57;;;;;;;19.33;3.10;;;12.90;99.90;;;;;;5082944;28;20195;-65
2022/11/03 02:02:26;;;;;;;10.00;3.00;;;12.90;99.90;;;;;;5099989;28;20187;-65
2022/11/03 02:04:56;;;;;;;11.80;2.60;;;12.90;99.90;;;;;;5096774;28;20215;-65
2022/11/03 02:07:32;;;;;;;8.47;2.77;;;12.90;99.90;;;;;;5092793;28;20700;-65
2022/11/03 02:10:01;;;;;;;6.00;2.70;;;12.90;99.90;;;;;;5103328;28;20646;-65
2022/11/03 02:12:30;;;;;;;11.73;2.60;;;12.90;99.90;;;;;;5097893;28;20222;-64
2022/11/03 02:15:02;;;;;;;9.87;2.97;;;12.80;99.90;;;;;;5102009;28;20188;-65
2022/11/03 02:17:33;;;;;;;9.90;2.53;;;12.80;99.90;;;;;;5100060;28;20195;-65
2022/11/03 02:20:04;;;;;;;11.10;2.83;;;12.80;99.90;;;;;;5098438;28;20187;-65
2022/11/03 02:22:52;;;;;;;6.57;2.77;;;12.70;99.90;;;;;;5103891;28;20198;-65
2022/11/03 02:25:35;;;;;;;9.43;2.80;;;12.80;99.90;;;;;;5083237;28;20215;-65
2022/11/03 02:28:05;;;;;;;9.53;3.37;;;12.70;99.90;;;;;;5100652;27;20194;-64
2022/11/03 02:30:38;;;;;;;10.30;3.13;;;12.70;99.90;;;;;;5082302;28;20252;-65
2022/11/03 02:33:17;;;;;;;14.53;3.00;;;12.70;99.90;;;;;;5104344;28;20783;-65
2022/11/03 02:35:52;;;;;;;10.53;2.77;;;12.70;99.90;;;;;;5095060;28;20198;-66
2022/11/03 02:38:21;;;;;;;9.77;2.70;;;12.70;99.90;;;;;;5085035;28;20194;-64
2022/11/03 02:40:54;;;;;;;7.07;2.70;;;12.70;99.90;;;;;;5104452;28;20209;-65
2022/11/03 02:43:25;;;;;;;10.00;2.73;;;12.70;99.90;;;;;;5082489;27;20198;-65
2022/11/03 02:45:55;;;;;;;10.37;2.90;;;12.60;99.90;;;;;;5098398;28;20234;-65
2022/11/03 02:48:23;;;;;;;10.00;3.40;;;12.60;99.90;;;;;;5098249;28;20192;-64
2022/11/03 02:50:52;;;;;;;8.03;3.03;;;12.60;99.90;;;;;;5097755;28;20210;-65
2022/11/03 02:53:20;;;;;;;7.07;2.77;;;12.60;99.90;;;;;;5060866;28;20209;-65
2022/11/03 02:55:56;;;;;;;16.00;3.67;;;12.60;99.90;;;;;;5098909;28;20187;-65
2022/11/03 02:58:34;;;;;;;14.17;2.93;;;12.60;99.90;;;;;;5096018;28;20203;-65
2022/11/03 03:01:13;;;;;;;13.87;3.23;;;12.60;99.90;;;;;;5092804;27;20202;-65
2022/11/03 03:03:46;;;;;;;9.53;2.60;;;12.60;99.90;;;;;;5096622;28;20268;-65
2022/11/03 03:06:20;;;;;;;11.40;3.20;;;12.50;99.90;;;;;;5097043;27;20221;-65
2022/11/03 03:08:53;;;;;;;7.87;2.67;;;12.50;99.90;;;;;;5099780;28;20190;-66
2022/11/03 03:11:36;;;;;;;10.57;2.80;;;12.50;99.90;;;;;;5096997;28;20197;-65
2022/11/03 03:14:11;;;;;;;14.03;3.37;;;12.50;99.90;;;;;;5096615;28;20210;-65
2022/11/03 03:16:50;;;;;;;9.30;2.87;;;12.40;99.90;;;;;;5101074;28;20195;-65
2022/11/03 03:19:26;;;;;;;12.63;3.30;;;12.50;99.90;;;;;;5078443;28;20704;-65
2022/11/03 03:21:59;;;;;;;11.03;3.53;;;12.40;99.90;;;;;;5099567;28;20198;-65
2022/11/03 03:24:38;;;;;;;11.30;3.73;;;12.40;99.90;;;;;;5090465;28;20193;-65
2022/11/03 03:27:14;;;;;;;11.37;2.90;;;12.40;99.90;;;;;;5099106;28;20664;-65
2022/11/03 03:29:47;;;;;;;13.20;3.00;;;12.50;99.90;;;;;;5073815;28;20182;-65
2022/11/03 03:32:20;;;;;;;12.87;3.20;;;12.40;99.90;;;;;;5102564;28;20202;-65
2022/11/03 03:34:49;;;;;;;12.20;3.57;;;12.40;99.90;;;;;;5104068;28;20190;-65
2022/11/03 03:37:20;;;;;;;10.27;3.37;;;12.50;99.90;;;;;;5106016;28;20198;-65
2022/11/03 03:39:52;;;;;;;12.50;2.90;;;12.50;99.90;;;;;;5107972;28;20214;-65
2022/11/03 03:42:24;;;;;;;14.37;3.20;;;12.40;99.90;;;;;;5106352;28;20198;-65
2022/11/03 03:44:54;;;;;;;9.00;2.80;;;12.40;99.90;;;;;;5103616;28;20993;-65
2022/11/03 03:47:27;;;;;;;10.93;2.97;;;12.40;99.90;;;;;;5101871;28;20545;-65
2022/11/03 03:49:57;;;;;;;7.97;2.80;;;12.40;99.90;;;;;;5097066;28;20680;-65
2022/11/03 03:52:26;;;;;;;10.43;2.73;;;12.40;99.90;;;;;;5096741;28;20195;-65
2022/11/03 03:54:55;;;;;;;8.30;2.97;;;12.40;99.90;;;;;;5100518;28;20894;-65
2022/11/03 03:57:27;;;;;;;11.07;2.97;;;12.40;99.90;;;;;;5094862;28;20209;-65
2022/11/03 03:59:55;;;;;;;12.57;3.00;;;12.50;99.90;;;;;;5102998;28;20191;-65
2022/11/03 04:02:23;;;;;;;11.40;3.23;;;12.40;99.90;;;;;;5098272;28;20759;-65
2022/11/03 04:04:52;;;;;;;7.70;3.00;;;12.40;99.90;;;;;;5101740;28;20979;-64
2022/11/03 04:10:11;;;;;;;10.40;3.40;;;12.40;99.90;;;;;;5084421;28;20253;-65
2022/11/03 04:23:47;;;;;;;15.00;3.03;;;12.30;99.90;;;;;;5104514;28;20194;-65
2022/11/03 04:26:17;;;;;;;9.27;2.97;;;12.30;99.90;;;;;;5081179;28;20202;-65
2022/11/03 04:28:47;;;;;;;11.13;3.23;;;12.40;99.90;;;;;;5101935;28;20271;-65
2022/11/03 04:31:17;;;;;;;13.90;3.20;;;12.40;99.90;;;;;;5100331;28;20347;-65
2022/11/03 04:33:46;;;;;;;13.20;3.00;;;12.40;99.90;;;;;;5101802;28;20277;-65
2022/11/03 04:36:19;;;;;;;13.03;3.30;;;12.40;99.90;;;;;;5102062;28;20187;-65
2022/11/03 04:38:48;;;;;;;11.60;3.10;;;12.40;99.90;;;;;;5104741;28;20230;-65
2022/11/03 04:41:18;;;;;;;8.93;3.00;;;12.40;99.90;;;;;;5098672;28;20251;-65
2022/11/03 04:43:49;;;;;;;11.17;2.80;;;12.50;99.90;;;;;;5078168;28;20248;-65
2022/11/03 04:46:24;;;;;;;9.87;2.90;;;12.60;99.90;;;;;;5106745;28;20211;-65
2022/11/03 04:48:53;;;;;;;14.00;3.03;;;12.60;99.90;;;;;;5084733;28;20190;-65
2022/11/03 04:51:25;;;;;;;10.33;3.20;;;12.60;99.90;;;;;;5103359;28;20221;-64
2022/11/03 04:53:55;;;;;;;7.93;2.80;;;12.60;99.90;;;;;;5065052;28;20241;-65
2022/11/03 04:56:25;;;;;;;7.23;2.50;;;12.60;99.90;;;;;;5098505;28;20183;-65
2022/11/03 04:58:55;;;;;;;14.33;3.30;;;12.60;99.90;;;;;;5095752;28;20194;-65
2022/11/03 05:01:24;;;;;;;5.40;2.80;;;12.60;99.90;;;;;;5086675;28;20201;-65
2022/11/03 05:03:54;;;;;;;15.50;3.40;;;12.70;99.90;;;;;;5103159;28;20948;-65
2022/11/03 05:06:26;;;;;;;7.60;2.40;;;12.70;99.90;;;;;;5085276;28;20993;-65
2022/11/03 05:08:58;;;;;;;6.90;2.70;;;12.70;99.90;;;;;;5100882;28;20187;-65
2022/11/03 05:11:37;;;;;;;7.63;3.00;;;12.70;99.90;;;;;;5087970;28;20191;-65
2022/11/03 05:14:15;;;;;;;7.70;3.30;;;12.70;99.90;;;;;;5080252;28;20191;-65
2022/11/03 05:16:44;;;;;;;10.07;3.30;;;12.70;99.90;;;;;;5061322;28;20188;-65
2022/11/03 05:19:20;;;;;;;8.00;2.90;;;12.70;99.90;;;;;;5081446;28;20252;-65
2022/11/03 05:21:50;;;;;;;7.43;2.70;;;12.70;99.90;;;;;;5064643;28;20192;-65
2022/11/03 05:24:21;;;;;;;7.53;2.77;;;12.70;99.90;;;;;;5057169;28;20193;-65
2022/11/03 05:26:50;;;;;;;8.27;2.50;;;12.70;99.90;;;;;;5073573;28;20219;-65
2022/11/03 05:29:24;;;;;;;9.13;2.60;;;12.70;99.90;;;;;;5082947;28;20278;-65
2022/11/03 05:31:54;;;;;;;8.97;3.30;;;12.80;99.90;;;;;;5063946;28;20189;-65
2022/11/03 05:34:34;;;;;;;7.80;2.90;;;12.80;99.90;;;;;;5082699;28;20191;-65
2022/11/03 05:37:19;;;;;;;8.57;3.03;;;12.80;99.90;;;;;;5084365;28;20665;-65
2022/11/03 05:39:56;;;;;;;8.63;2.63;;;12.80;99.90;;;;;;5082445;28;20614;-64
2022/11/03 05:42:36;;;;;;;6.60;2.40;;;12.80;99.90;;;;;;5065263;28;20206;-65
2022/11/03 05:45:16;;;;;;;11.03;3.10;;;12.80;99.90;;;;;;5081904;28;20195;-65
2022/11/03 05:47:44;;;;;;;18.33;3.47;;;12.80;99.90;;;;;;5066534;28;20199;-65
2022/11/03 05:50:20;;;;;;;6.83;2.90;;;12.80;99.90;;;;;;5079650;28;20234;-65
2022/11/03 05:52:51;;;;;;;12.70;3.00;;;12.80;99.90;;;;;;5078297;28;20231;-65
2022/11/03 05:55:25;;;;;;;12.20;2.93;;;12.90;99.90;;;;;;5081699;28;20187;-65
2022/11/03 05:57:56;;;;;;;9.33;2.70;;;12.90;99.90;;;;;;5062366;28;20207;-65
2022/11/03 06:00:29;;;;;;;13.10;2.70;;;12.90;99.90;;;;;;5062309;28;20196;-65
2022/11/03 06:02:58;;;;;;;11.93;2.90;;;12.90;99.90;;;;;;5077102;28;20192;-65
2022/11/03 06:05:27;;;;;;;8.27;3.40;;;12.90;99.90;;;;;;5062919;28;20202;-65
2022/11/03 06:08:00;;;;;;;7.80;3.00;;;12.90;99.90;;;;;;5078319;28;20207;-65
2022/11/03 06:10:31;;;;;;;17.03;3.17;;;12.90;99.90;;;;;;5079292;28;20266;-64
2022/11/03 06:13:04;;;;;;;8.23;2.97;;;12.90;99.90;;;;;;5077309;28;20885;-65
2022/11/03 06:15:35;;;;;;;15.80;3.53;;;12.90;99.90;;;;;;5061029;28;20204;-65
2022/11/03 06:18:14;;;;;;;13.57;2.97;;;12.90;99.90;;;;;;5078310;28;20200;-65
2022/11/03 06:20:46;;;;;;;6.80;2.83;;;12.90;99.90;;;;;;5058379;28;20214;-65
2022/11/03 06:23:16;;;;;;;9.70;3.30;;;12.90;99.90;;;;;;5072723;28;20195;-65
2022/11/03 06:25:45;;;;;;;12.27;3.03;;;12.90;99.90;;;;;;5071627;28;20221;-66
2022/11/03 06:28:22;;;;;;;10.30;3.30;;;12.80;99.90;;;;;;5058525;28;20546;-64
2022/11/03 06:30:55;;;;;;;17.23;3.60;;;12.80;99.90;;;;;;5078338;28;20191;-65
2022/11/03 06:33:27;;;;;;;15.20;3.50;;;12.80;99.90;;;;;;5057600;28;20276;-65
2022/11/03 06:35:59;;;;;;;10.07;4.13;;;12.80;99.90;;;;;;5080163;28;20202;-65
2022/11/03 06:38:29;;;;;;;18.13;4.40;;;12.80;99.90;;;;;;5077485;28;20211;-65
2022/11/03 06:40:58;;;;;;;11.50;3.77;;;12.80;99.90;;;;;;5071509;28;20202;-65
2022/11/03 06:43:34;;;;;;;11.90;3.60;;;12.80;99.90;;;;;;5077476;28;20192;-65
2022/11/03 06:46:12;;;;;;;14.90;3.90;;;12.80;99.90;;;;;;5078223;28;20200;-64
2022/11/03 06:48:41;;;;;;;15.73;3.87;;;12.80;99.90;;;;;;5082453;28;20192;-64
2022/11/03 06:51:18;;;;;;;9.87;3.67;;;12.80;99.90;;;;;;5084938;28;20192;-64
2022/11/03 06:53:47;;;;;;;12.47;3.23;;;12.80;99.90;;;;;;5052063;28;20222;-65
2022/11/03 06:56:20;;;;;;;10.23;3.63;;;12.80;99.90;;;;;;5071083;28;20207;-65
2022/11/03 06:58:49;;;;;;;10.20;3.70;;;12.80;99.90;;;;;;5073418;28;20192;-65
2022/11/03 07:01:22;;;;;;;14.07;3.63;;;12.80;99.90;;;;;;5080960;28;20839;-65
2022/11/03 07:03:56;;;;;;;14.60;3.80;;;12.80;99.90;;;;;;5082340;28;20235;-65
2022/11/03 07:06:28;;;;;;;11.57;3.37;;;12.70;99.90;;;;;;5081189;28;20249;-65
2022/11/03 07:09:01;;;;;;;14.23;3.73;;;12.70;99.90;;;;;;5045400;28;20210;-65
2022/11/03 07:11:31;;;;;;;15.30;3.93;;;12.80;99.90;;;;;;5074562;28;20192;-65
2022/11/03 07:14:10;;;;;;;21.00;4.13;;;12.70;99.90;;;;;;5073178;28;20191;-64
2022/11/03 07:16:43;;;;;;;11.67;3.70;;;12.70;99.90;;;;;;5061287;28;20196;-65
2022/11/03 07:19:17;;;;;;;10.27;3.40;;;12.70;99.90;;;;;;5076888;28;20199;-65
2022/11/03 07:21:50;;;;;;;10.97;3.90;;;12.70;99.90;;;;;;5057600;28;20211;-65
2022/11/03 07:24:24;;;;;;;11.57;3.57;;;12.70;99.90;;;;;;5072576;28;20200;-64
2022/11/03 07:26:59;;;;;;;10.37;3.73;;;12.70;99.90;;;;;;5081724;28;20218;-65
2022/11/03 07:29:29;;;;;;;9.67;3.63;;;12.70;99.90;;;;;;5078368;28;20179;-65
2022/11/03 07:32:00;;;;;;;11.57;4.07;;;12.70;99.90;;;;;;5079470;28;20210;-65
2022/11/03 07:34:32;;;;;;;13.13;3.80;;;12.80;99.90;;;;;;5078225;28;20681;-65
2022/11/03 07:37:01;;;;;;;10.10;3.60;;;12.80;99.90;;;;;;5064449;28;20237;-65
2022/11/03 07:39:34;;;;;;;11.37;3.37;;;12.80;99.90;;;;;;5079041;28;20760;-65
2022/11/03 07:42:09;;;;;;;15.77;4.23;;;12.90;99.90;;;;;;5075757;28;20192;-65
2022/11/03 07:44:38;;;;;;;14.43;3.80;;;13.00;99.90;;;;;;5077751;28;20771;-65
2022/11/03 07:47:13;;;;;;;11.30;3.47;;;12.90;99.90;;;;;;5062556;28;20223;-65
2022/11/03 07:49:42;;;;;;;12.57;3.57;;;13.00;99.90;;;;;;5064562;28;20186;-65
2022/11/03 07:52:14;;;;;;;7.30;3.20;;;13.00;99.90;;;;;;5079104;28;20199;-65
2022/11/03 07:54:43;;;;;;;8.00;3.17;;;13.00;99.90;;;;;;5075566;28;20184;-65
2022/11/03 07:57:18;;;;;;;6.67;3.30;;;13.00;99.90;;;;;;5075852;28;20223;-65
2022/11/03 07:59:48;;;;;;;12.90;3.20;;;13.00;99.90;;;;;;5074146;28;20199;-65
2022/11/03 08:02:29;;;;;;;9.20;2.83;;;13.00;99.90;;;;;;5057015;28;20203;-65
2022/11/03 08:04:58;;;;;;;9.43;2.83;;;13.00;99.90;;;;;;5071920;28;20195;-65
2022/11/03 08:07:27;;;;;;;16.40;3.27;;;13.00;99.90;;;;;;5078388;28;20674;-65
2022/11/03 08:09:55;;;;;;;10.73;3.20;;;13.00;99.90;;;;;;5083812;28;20195;-65
2022/11/03 08:12:24;;;;;;;15.97;3.20;;;13.00;99.90;;;;;;5092935;28;20313;-65
2022/11/03 08:14:52;;;;;;;12.00;3.23;;;13.00;99.90;;;;;;5096114;28;20202;-65
2022/11/03 08:17:22;;;;;;;13.27;3.57;;;13.10;99.90;;;;;;5103430;28;20199;-65
2022/11/03 08:19:50;;;;;;;15.77;3.80;;;13.00;99.90;;;;;;5103746;27;20199;-65
2022/11/03 08:22:18;;;;;;;8.33;2.80;;;13.10;99.90;;;;;;5101242;28;20641;-65
2022/11/03 08:24:47;;;;;;;14.20;3.50;;;13.10;99.90;;;;;;5100260;28;20864;-65
2022/11/03 08:27:15;;;;;;;8.00;3.07;;;13.10;99.90;;;;;;5093889;28;22122;-65
2022/11/03 08:29:43;;;;;;;13.43;3.17;;;13.10;99.90;;;;;;5081128;28;20186;-65
2022/11/03 08:32:12;;;;;;;14.17;3.20;;;13.10;99.90;;;;;;5100122;28;20235;-65
2022/11/03 08:34:41;;;;;;;8.57;2.90;;;13.10;99.90;;;;;;5102562;28;20191;-65
2022/11/03 08:37:10;;;;;;;12.20;2.63;;;13.00;99.90;;;;;;5103919;28;20205;-65
2022/11/03 08:39:38;;;;;;;11.73;3.30;;;13.00;99.90;;;;;;5101794;28;20728;-65
2022/11/03 08:42:06;;;;;;;8.97;3.13;;;13.00;99.90;;;;;;5095363;28;20565;-65
2022/11/03 08:44:35;;;;;;;5.33;2.80;;;13.00;99.90;;;;;;5101243;28;20199;-64
2022/11/03 08:47:04;;;;;;;5.77;2.80;;;13.00;99.90;;;;;;5104820;28;20191;-64
2022/11/03 08:49:32;;;;;;;10.50;3.50;;;13.00;99.90;;;;;;5098155;28;20599;-65
2022/11/03 08:52:03;;;;;;;11.03;3.30;;;13.00;99.90;;;;;;5103599;28;20195;-65
2022/11/03 08:54:31;;;;;;;10.53;3.30;;;12.90;99.90;;;;;;5106336;28;20229;-64
2022/11/03 08:56:59;;;;;;;5.53;2.87;;;13.00;99.90;;;;;;5099598;28;20191;-64
2022/11/03 08:59:29;;;;;;;6.83;2.63;;;13.00;99.90;;;;;;5103688;28;20839;-64
2022/11/03 09:01:57;;;;;;;13.10;3.40;;;13.00;99.90;;;;;;5104631;28;20314;-65
2022/11/03 09:04:26;;;;;;;7.97;3.20;;;13.00;99.90;;;;;;5103752;28;20229;-64
2022/11/03 09:06:54;;;;;;;9.77;3.20;;;13.10;99.90;;;;;;5101689;28;20187;-65
2022/11/03 09:09:24;;;;;;;7.07;3.30;;;13.20;99.90;;;;;;5094621;28;20207;-65
2022/11/03 09:12:14;;;;;;;6.00;2.83;;;13.20;99.90;;;;;;5079717;28;20295;-65
2022/11/03 09:14:42;;;;;;;7.10;2.80;;;13.20;99.90;;;;;;5104000;28;20191;-65
2022/11/03 09:17:11;;;;;;;6.67;2.90;;;13.30;99.90;;;;;;5089809;28;20187;-65
2022/11/03 09:19:40;;;;;;;8.67;2.87;;;13.30;99.90;;;;;;5099105;28;20302;-65
2022/11/03 09:22:08;;;;;;;6.80;3.00;;;13.40;99.90;;;;;;5104631;27;20185;-65
2022/11/03 09:24:38;;;;;;;9.70;2.87;;;13.40;99.90;;;;;;5106928;27;20252;-65
2022/11/03 09:27:06;;;;;;;9.00;2.57;;;13.50;99.90;;;;;;5105451;28;20226;-65
2022/11/03 09:29:35;;;;;;;10.40;2.60;;;13.50;99.90;;;;;;5102527;28;20710;-65
2022/11/03 09:32:24;;;;;;;8.23;2.60;;;13.50;99.90;;;;;;5099642;28;20211;-65
2022/11/03 09:34:52;;;;;;;8.40;2.90;;;13.60;99.90;;;;;;5101569;28;20270;-65
2022/11/03 09:37:21;;;;;;;10.47;2.80;;;13.70;99.90;;;;;;5101007;28;20209;-65
2022/11/03 09:39:51;;;;;;;11.50;3.70;;;13.80;99.90;;;;;;5093557;28;20211;-65
2022/11/03 09:42:21;;;;;;;10.13;2.73;;;13.90;99.90;;;;;;5102010;28;20202;-65
2022/11/03 09:44:50;;;;;;;8.40;2.93;;;14.00;99.90;;;;;;5102446;28;20274;-65
2022/11/03 09:47:23;;;;;;;7.57;2.93;;;14.00;99.90;;;;;;5106241;28;20738;-65
2022/11/03 09:49:51;;;;;;;8.50;2.77;;;14.00;99.90;;;;;;5098678;28;20214;-64
2022/11/03 09:52:23;;;;;;;5.97;2.90;;;14.00;99.90;;;;;;5105600;28;20187;-65
2022/11/03 09:54:55;;;;;;;3.93;2.50;;;14.00;99.90;;;;;;5106686;28;20191;-65
2022/11/03 09:57:26;;;;;;;6.17;2.67;;;14.10;99.90;;;;;;5088239;28;20202;-65
2022/11/03 09:59:55;;;;;;;8.77;2.50;;;14.10;99.90;;;;;;5107945;28;20291;-65
2022/11/03 10:02:29;;;;;;;8.33;2.47;;;14.20;99.90;;;;;;5101834;28;20191;-65
2022/11/03 10:04:59;;;;;;;5.93;2.83;;;14.30;99.90;;;;;;5082826;28;20244;-65
2022/11/03 10:07:32;;;;;;;8.83;2.77;;;14.30;99.90;;;;;;5100396;28;20206;-65
2022/11/03 10:10:03;;;;;;;14.07;2.60;;;14.50;99.90;;;;;;5065656;28;20777;-65
2022/11/03 10:12:36;;;;;;;11.63;2.60;;;14.60;99.90;;;;;;5101037;28;20219;-65
2022/11/03 10:15:04;;;;;;;10.23;2.93;;;14.80;99.90;;;;;;5083127;28;20217;-65
2022/11/03 10:17:33;;;;;;;5.30;2.63;;;14.80;99.90;;;;;;5099451;28;20205;-65
2022/11/03 10:20:02;;;;;;;11.57;2.90;;;14.90;99.90;;;;;;5103040;28;20179;-65
2022/11/03 10:22:30;;;;;;;11.20;2.50;;;14.90;99.90;;;;;;5104208;28;20193;-65
2022/11/03 10:25:29;;;;;;;9.67;2.93;;;15.00;99.90;;;;;;5102194;28;20199;-65
2022/11/03 10:28:13;;;;;;;5.50;2.40;;;15.20;99.90;;;;;;5094017;27;20260;-65
2022/11/03 10:30:49;;;;;;;7.80;2.60;;;15.10;99.90;;;;;;5100203;28;20199;-65
2022/11/03 10:33:40;;;;;;;7.43;2.67;;;15.00;99.90;;;;;;5069445;28;20230;-65
2022/11/03 10:36:23;;;;;;;7.93;2.30;;;15.00;99.90;;;;;;5104271;28;20201;-65
2022/11/03 10:38:52;;;;;;;11.53;2.60;;;14.90;99.90;;;;;;5099273;27;20760;-66
2022/11/03 10:41:24;;;;;;;6.27;2.60;;;14.80;99.90;;;;;;5095369;28;20198;-65
2022/11/03 10:44:06;;;;;;;6.33;2.73;;;14.80;99.90;;;;;;5078439;28;20214;-65
2022/11/03 10:46:37;;;;;;;8.10;2.67;;;14.90;99.90;;;;;;5094413;28;20917;-65
2022/11/03 10:49:19;;;;;;;6.70;2.20;;;14.90;99.90;;;;;;5104426;28;20203;-65
2022/11/03 10:51:50;;;;;;;8.20;2.40;;;14.90;99.90;;;;;;5106302;28;20827;-65
2022/11/03 10:54:21;;;;;;;4.93;2.40;;;15.00;99.90;;;;;;5091742;28;20604;-66
2022/11/03 10:56:52;;;;;;;6.77;2.43;;;15.10;99.90;;;;;;5102414;28;20202;-66
2022/11/03 10:59:24;;;;;;;7.23;2.10;;;15.20;99.90;;;;;;5080209;28;20188;-65
2022/11/03 11:01:52;;;;;;;7.63;2.30;;;15.30;99.90;;;;;;5097237;28;20569;-65
2022/11/03 11:04:25;;;;;;;4.33;2.20;;;15.40;99.90;;;;;;5079733;28;20202;-65
2022/11/03 11:06:54;;;;;;;6.47;2.20;;;15.50;99.90;;;;;;5090081;28;20194;-65
2022/11/03 11:09:25;;;;;;;4.40;2.27;;;15.60;99.90;;;;;;5077945;28;20209;-65
2022/11/03 11:12:03;;;;;;;4.10;2.40;;;15.60;99.90;;;;;;5069459;28;20218;-65
2022/11/03 11:14:38;;;;;;;8.40;2.20;;;15.60;99.90;;;;;;5096129;28;20213;-66
2022/11/03 11:17:41;;;;;;;2.37;2.20;;;15.60;99.90;;;;;;5095512;28;20926;-65
2022/11/03 11:20:36;;;;;;;6.17;1.90;;;15.80;99.90;;;;;;5102862;28;20195;-65
2022/11/03 11:23:48;;;;;;;3.23;2.00;;;15.90;99.90;;;;;;5080130;28;20198;-65
2022/11/03 11:26:40;;;;;;;2.77;2.13;;;16.10;99.90;;;;;;5079784;28;20201;-65
2022/11/03 11:29:43;;;;;;;4.53;1.90;;;15.90;99.90;;;;;;5101225;28;20215;-65
2022/11/03 11:32:50;;;;;;;4.10;1.93;;;15.80;99.90;;;;;;5092627;28;20195;-65
2022/11/03 11:36:04;;;;;;;7.23;2.30;;;15.70;99.90;;;;;;5076660;28;20205;-65
2022/11/03 11:38:55;;;;;;;5.67;2.13;;;15.80;99.90;;;;;;5096304;28;20229;-65
2022/11/03 11:41:57;;;;;;;7.17;2.20;;;15.90;99.90;;;;;;5078379;28;20192;-66
2022/11/03 11:44:56;;;;;;;3.83;2.13;;;16.30;99.90;;;;;;5093631;28;20188;-65
2022/11/03 11:47:44;;;;;;;4.97;2.20;;;16.50;99.90;;;;;;5096920;28;20231;-65
2022/11/03 11:50:24;;;;;;;5.90;2.00;;;16.30;99.90;;;;;;5082330;28;20214;-65
2022/11/03 11:52:57;;;;;;;3.40;2.00;;;16.20;99.90;;;;;;5095001;28;20601;-65
2022/11/03 11:55:31;;;;;;;5.87;2.20;;;16.20;99.90;;;;;;5096931;28;20205;-65
2022/11/03 11:58:02;;;;;;;2.77;2.10;;;16.30;99.90;;;;;;5087711;28;20264;-66
2022/11/03 12:00:34;;;;;;;5.17;1.80;;;16.30;99.90;;;;;;5091065;28;20213;-65
2022/11/03 12:03:05;;;;;;;5.27;2.30;;;16.50;99.90;;;;;;5077869;28;20303;-65
2022/11/03 12:05:35;;;;;;;3.80;2.00;;;16.50;99.90;;;;;;5099746;28;20676;-65
2022/11/03 12:08:18;;;;;;;5.83;2.07;;;16.40;99.90;;;;;;5099628;28;20846;-66
2022/11/03 12:10:53;;;;;;;10.90;2.00;;;16.40;99.90;;;;;;5081838;28;20222;-65
2022/11/03 12:13:43;;;;;;;4.47;2.17;;;16.40;99.90;;;;;;5077611;28;20223;-65
2022/11/03 12:19:34;;;;;;;5.73;1.83;;;16.30;99.90;;;;;;5034486;27;20600;-66
2022/11/03 12:22:04;;;;;;;5.53;2.03;;;16.30;99.90;;;;;;5018033;28;20214;-67
2022/11/03 12:24:38;;;;;;;4.10;1.83;;;16.40;99.90;;;;;;5039949;28;20273;-66
2022/11/03 12:27:40;;;;;;;4.67;2.30;;;16.50;99.90;;;;;;5013009;28;20747;-66
2022/11/03 12:30:15;;;;;;;5.33;2.27;;;16.40;99.90;;;;;;5022635;28;20199;-66
2022/11/03 12:32:44;;;;;;;4.20;1.80;;;16.30;99.90;;;;;;5009001;28;20214;-66
2022/11/03 12:35:14;;;;;;;8.03;1.97;;;16.20;99.90;;;;;;5031876;28;20672;-66
2022/11/03 12:37:42;;;;;;;3.37;1.73;;;16.10;99.90;;;;;;5018715;28;20584;-66
2022/11/03 12:40:13;;;;;;;1.97;1.87;;;16.00;99.90;;;;;;5003422;28;20199;-66
2022/11/03 12:42:41;;;;;;;3.63;2.00;;;16.00;99.90;;;;;;5017018;28;20198;-66
2022/11/03 12:45:12;;;;;;;3.63;2.00;;;16.00;99.90;;;;;;5011234;28;20573;-66
2022/11/03 12:47:41;;;;;;;5.10;1.77;;;16.00;99.90;;;;;;5009136;28;20726;-66
2022/11/03 12:50:10;;;;;;;2.97;1.93;;;16.00;99.90;;;;;;5009377;28;20207;-66
2022/11/03 12:52:40;;;;;;;6.50;2.13;;;16.00;99.90;;;;;;5007411;28;20213;-66
2022/11/03 12:55:09;;;;;;;3.07;1.93;;;15.90;99.90;;;;;;5015545;28;20725;-66
2022/11/03 12:57:37;;;;;;;6.10;2.00;;;15.80;99.90;;;;;;5011521;28;20214;-66
2022/11/03 13:00:07;;;;;;;3.27;1.80;;;15.80;99.90;;;;;;5010278;28;20204;-66
2022/11/03 13:02:36;;;;;;;4.90;2.00;;;15.80;99.90;;;;;;5011904;28;20256;-66
2022/11/03 13:05:06;;;;;;;3.53;2.17;;;15.70;99.90;;;;;;5013182;28;20199;-66
2022/11/03 13:07:37;;;;;;;4.80;2.00;;;15.60;99.90;;;;;;5013512;28;20232;-65
2022/11/03 13:10:07;;;;;;;4.00;2.30;;;15.50;99.90;;;;;;5015438;28;20660;-66
2022/11/03 13:12:40;;;;;;;3.80;2.00;;;15.50;99.90;;;;;;5008601;28;20258;-66
2022/11/03 13:15:12;;;;;;;9.63;1.90;;;15.50;99.90;;;;;;5020013;28;20230;-66
2022/11/03 13:17:40;;;;;;;3.70;2.20;;;15.40;99.90;;;;;;5007582;28;20795;-66
2022/11/03 13:20:28;;;;;;;5.77;2.40;;;15.40;99.90;;;;;;5020147;27;20202;-66
2022/11/03 13:22:57;;;;;;;5.03;2.50;;;15.20;99.90;;;;;;5009288;28;20217;-66
2022/11/03 13:25:27;;;;;;;5.60;2.20;;;15.10;99.90;;;;;;5017007;28;20576;-66
2022/11/03 13:27:56;;;;;;;3.93;2.37;;;14.90;99.90;;;;;;5008828;28;20664;-66
2022/11/03 13:30:27;;;;;;;4.13;2.60;;;14.70;99.90;;;;;;4998631;28;20198;-66
2022/11/03 13:32:55;;;;;;;2.57;2.30;;;14.70;99.90;;;;;;5025183;28;20202;-66